sensor_id;sensor_type;location;lat;lon;timestamp;P1;durP1;ratioP1;P2;durP2;ratioP2
23498;SDS011;11926;48.120;11.562;2022-08-18T00:02:43;8.98;;;7.18;;
23498;SDS011;11926;48.120;11.562;2022-08-18T00:05:45;9.73;;;7.13;;
23498;SDS011;11926;48.120;11.562;2022-08-18T00:08:32;11.43;;;6.85;;
23498;SDS011;11926;48.120;11.562;2022-08-18T00:11:24;9.10;;;7.15;;
23498;SDS011;11926;48.120;11.562;2022-08-18T00:14:26;9.25;;;7.05;;
23498;SDS011;11926;48.120;11.562;2022-08-18T00:17:13;8.43;;;6.80;;
23498;SDS011;11926;48.120;11.562;2022-08-18T00:20:02;11.40;;;6.88;;
23498;SDS011;11926;48.120;11.562;2022-08-18T00:22:51;8.73;;;6.95;;
23498;SDS011;11926;48.120;11.562;2022-08-18T00:25:40;10.38;;;7.05;;
23498;SDS011;11926;48.120;11.562;2022-08-18T00:28:31;9.85;;;7.15;;
23498;SDS011;11926;48.120;11.562;2022-08-18T00:31:18;10.32;;;6.80;;
23498;SDS011;11926;48.120;11.562;2022-08-18T00:34:05;8.20;;;6.53;;
23498;SDS011;11926;48.120;11.562;2022-08-18T00:36:53;8.55;;;6.35;;
23498;SDS011;11926;48.120;11.562;2022-08-18T00:39:41;7.70;;;5.88;;
23498;SDS011;11926;48.120;11.562;2022-08-18T00:42:31;9.02;;;6.45;;
23498;SDS011;11926;48.120;11.562;2022-08-18T00:45:21;8.80;;;6.55;;
23498;SDS011;11926;48.120;11.562;2022-08-18T00:48:12;10.73;;;6.57;;
23498;SDS011;11926;48.120;11.562;2022-08-18T00:51:09;9.32;;;7.47;;
23498;SDS011;11926;48.120;11.562;2022-08-18T00:54:02;8.70;;;6.20;;
23498;SDS011;11926;48.120;11.562;2022-08-18T00:59:45;11.70;;;6.50;;
23498;SDS011;11926;48.120;11.562;2022-08-18T01:02:38;9.30;;;6.00;;
23498;SDS011;11926;48.120;11.562;2022-08-18T01:05:31;10.65;;;5.82;;
23498;SDS011;11926;48.120;11.562;2022-08-18T01:08:25;8.10;;;6.30;;
23498;SDS011;11926;48.120;11.562;2022-08-18T01:11:14;8.68;;;5.68;;
23498;SDS011;11926;48.120;11.562;2022-08-18T01:14:01;7.13;;;5.88;;
23498;SDS011;11926;48.120;11.562;2022-08-18T01:16:49;7.43;;;5.43;;
23498;SDS011;11926;48.120;11.562;2022-08-18T01:19:52;8.10;;;5.97;;
23498;SDS011;11926;48.120;11.562;2022-08-18T01:23:00;11.00;;;6.20;;
23498;SDS011;11926;48.120;11.562;2022-08-18T01:25:55;9.32;;;6.50;;
23498;SDS011;11926;48.120;11.562;2022-08-18T01:28:44;8.85;;;6.15;;
23498;SDS011;11926;48.120;11.562;2022-08-18T01:31:32;7.75;;;6.30;;
23498;SDS011;11926;48.120;11.562;2022-08-18T01:34:24;9.23;;;6.47;;
23498;SDS011;11926;48.120;11.562;2022-08-18T01:37:13;11.35;;;7.50;;
23498;SDS011;11926;48.120;11.562;2022-08-18T01:40:03;9.05;;;5.90;;
23498;SDS011;11926;48.120;11.562;2022-08-18T01:43:13;7.20;;;5.28;;
23498;SDS011;11926;48.120;11.562;2022-08-18T01:46:00;9.85;;;6.78;;
23498;SDS011;11926;48.120;11.562;2022-08-18T01:48:48;9.20;;;5.93;;
23498;SDS011;11926;48.120;11.562;2022-08-18T01:51:38;9.00;;;6.28;;
23498;SDS011;11926;48.120;11.562;2022-08-18T01:54:26;8.40;;;6.38;;
23498;SDS011;11926;48.120;11.562;2022-08-18T01:57:16;8.13;;;6.50;;
23498;SDS011;11926;48.120;11.562;2022-08-18T02:00:05;6.95;;;6.07;;
23498;SDS011;11926;48.120;11.562;2022-08-18T02:02:56;7.43;;;5.75;;
23498;SDS011;11926;48.120;11.562;2022-08-18T02:05:47;7.57;;;6.07;;
23498;SDS011;11926;48.120;11.562;2022-08-18T02:08:36;7.22;;;6.13;;
23498;SDS011;11926;48.120;11.562;2022-08-18T02:11:27;8.90;;;6.65;;
23498;SDS011;11926;48.120;11.562;2022-08-18T02:14:16;6.82;;;5.63;;
23498;SDS011;11926;48.120;11.562;2022-08-18T02:17:11;6.53;;;5.40;;
23498;SDS011;11926;48.120;11.562;2022-08-18T02:19:59;8.77;;;5.82;;
23498;SDS011;11926;48.120;11.562;2022-08-18T02:22:48;9.52;;;6.05;;
23498;SDS011;11926;48.120;11.562;2022-08-18T02:25:36;7.53;;;5.70;;
23498;SDS011;11926;48.120;11.562;2022-08-18T02:28:23;8.88;;;6.10;;
23498;SDS011;11926;48.120;11.562;2022-08-18T02:31:17;6.45;;;5.30;;
23498;SDS011;11926;48.120;11.562;2022-08-18T02:34:06;7.75;;;5.28;;
23498;SDS011;11926;48.120;11.562;2022-08-18T02:36:53;8.25;;;5.72;;
23498;SDS011;11926;48.120;11.562;2022-08-18T02:39:40;7.05;;;5.45;;
23498;SDS011;11926;48.120;11.562;2022-08-18T02:42:28;9.43;;;5.72;;
23498;SDS011;11926;48.120;11.562;2022-08-18T02:45:15;8.93;;;6.10;;
23498;SDS011;11926;48.120;11.562;2022-08-18T02:48:04;8.07;;;6.20;;
23498;SDS011;11926;48.120;11.562;2022-08-18T02:50:58;7.20;;;6.15;;
23498;SDS011;11926;48.120;11.562;2022-08-18T02:53:47;7.45;;;5.88;;
23498;SDS011;11926;48.120;11.562;2022-08-18T02:56:38;8.45;;;6.18;;
23498;SDS011;11926;48.120;11.562;2022-08-18T02:59:26;8.93;;;5.57;;
23498;SDS011;11926;48.120;11.562;2022-08-18T03:02:17;8.55;;;5.93;;
23498;SDS011;11926;48.120;11.562;2022-08-18T03:05:06;7.78;;;6.15;;
23498;SDS011;11926;48.120;11.562;2022-08-18T03:07:59;9.80;;;6.00;;
23498;SDS011;11926;48.120;11.562;2022-08-18T03:10:49;7.93;;;5.80;;
23498;SDS011;11926;48.120;11.562;2022-08-18T03:13:37;9.50;;;5.75;;
23498;SDS011;11926;48.120;11.562;2022-08-18T03:16:24;9.68;;;5.65;;
23498;SDS011;11926;48.120;11.562;2022-08-18T03:19:13;8.80;;;5.63;;
23498;SDS011;11926;48.120;11.562;2022-08-18T03:22:03;6.65;;;5.60;;
23498;SDS011;11926;48.120;11.562;2022-08-18T03:25:12;7.47;;;6.10;;
23498;SDS011;11926;48.120;11.562;2022-08-18T03:28:01;7.00;;;5.55;;
23498;SDS011;11926;48.120;11.562;2022-08-18T03:30:48;8.95;;;5.55;;
23498;SDS011;11926;48.120;11.562;2022-08-18T03:33:35;9.60;;;6.53;;
23498;SDS011;11926;48.120;11.562;2022-08-18T03:36:24;7.18;;;5.75;;
23498;SDS011;11926;48.120;11.562;2022-08-18T03:39:14;7.00;;;5.50;;
23498;SDS011;11926;48.120;11.562;2022-08-18T03:42:02;6.45;;;5.38;;
23498;SDS011;11926;48.120;11.562;2022-08-18T03:44:50;7.57;;;6.05;;
23498;SDS011;11926;48.120;11.562;2022-08-18T03:47:37;8.48;;;5.93;;
23498;SDS011;11926;48.120;11.562;2022-08-18T03:50:25;7.10;;;5.40;;
23498;SDS011;11926;48.120;11.562;2022-08-18T03:53:13;7.20;;;5.50;;
23498;SDS011;11926;48.120;11.562;2022-08-18T03:56:03;6.85;;;5.45;;
23498;SDS011;11926;48.120;11.562;2022-08-18T03:59:02;8.02;;;5.18;;
23498;SDS011;11926;48.120;11.562;2022-08-18T04:01:52;8.68;;;5.57;;
23498;SDS011;11926;48.120;11.562;2022-08-18T04:04:40;6.75;;;5.30;;
23498;SDS011;11926;48.120;11.562;2022-08-18T04:07:27;7.80;;;5.50;;
23498;SDS011;11926;48.120;11.562;2022-08-18T04:10:15;9.05;;;5.07;;
23498;SDS011;11926;48.120;11.562;2022-08-18T04:13:05;6.82;;;5.40;;
23498;SDS011;11926;48.120;11.562;2022-08-18T04:15:52;8.38;;;6.40;;
23498;SDS011;11926;48.120;11.562;2022-08-18T04:18:39;8.13;;;5.72;;
23498;SDS011;11926;48.120;11.562;2022-08-18T04:21:26;8.63;;;6.25;;
23498;SDS011;11926;48.120;11.562;2022-08-18T04:24:15;8.27;;;5.47;;
23498;SDS011;11926;48.120;11.562;2022-08-18T04:27:02;7.07;;;5.47;;
23498;SDS011;11926;48.120;11.562;2022-08-18T04:29:51;8.00;;;5.57;;
23498;SDS011;11926;48.120;11.562;2022-08-18T04:32:42;6.95;;;5.43;;
23498;SDS011;11926;48.120;11.562;2022-08-18T04:35:29;10.25;;;6.22;;
23498;SDS011;11926;48.120;11.562;2022-08-18T04:38:17;8.98;;;5.68;;
23498;SDS011;11926;48.120;11.562;2022-08-18T04:41:04;9.55;;;6.53;;
23498;SDS011;11926;48.120;11.562;2022-08-18T04:43:52;10.80;;;6.18;;
23498;SDS011;11926;48.120;11.562;2022-08-18T04:46:42;8.38;;;6.13;;
23498;SDS011;11926;48.120;11.562;2022-08-18T04:49:31;10.63;;;6.10;;
23498;SDS011;11926;48.120;11.562;2022-08-18T04:52:18;9.70;;;5.85;;
23498;SDS011;11926;48.120;11.562;2022-08-18T04:55:25;7.47;;;5.57;;
23498;SDS011;11926;48.120;11.562;2022-08-18T04:58:11;7.22;;;6.07;;
23498;SDS011;11926;48.120;11.562;2022-08-18T05:00:58;7.57;;;5.82;;
23498;SDS011;11926;48.120;11.562;2022-08-18T05:03:48;9.63;;;5.68;;
23498;SDS011;11926;48.120;11.562;2022-08-18T05:06:35;8.77;;;5.47;;
23498;SDS011;11926;48.120;11.562;2022-08-18T05:09:23;7.85;;;5.38;;
23498;SDS011;11926;48.120;11.562;2022-08-18T05:12:13;8.00;;;5.63;;
23498;SDS011;11926;48.120;11.562;2022-08-18T05:15:00;10.57;;;6.55;;
23498;SDS011;11926;48.120;11.562;2022-08-18T05:17:48;8.60;;;5.95;;
23498;SDS011;11926;48.120;11.562;2022-08-18T05:20:37;9.73;;;6.25;;
23498;SDS011;11926;48.120;11.562;2022-08-18T05:23:27;7.53;;;5.78;;
23498;SDS011;11926;48.120;11.562;2022-08-18T05:26:15;10.68;;;6.63;;
23498;SDS011;11926;48.120;11.562;2022-08-18T05:29:04;7.88;;;5.93;;
23498;SDS011;11926;48.120;11.562;2022-08-18T05:32:03;9.43;;;5.68;;
23498;SDS011;11926;48.120;11.562;2022-08-18T05:34:51;9.13;;;5.80;;
23498;SDS011;11926;48.120;11.562;2022-08-18T05:37:42;7.18;;;5.85;;
23498;SDS011;11926;48.120;11.562;2022-08-18T05:40:38;7.07;;;5.20;;
23498;SDS011;11926;48.120;11.562;2022-08-18T05:43:26;9.60;;;5.90;;
23498;SDS011;11926;48.120;11.562;2022-08-18T05:46:13;7.97;;;5.47;;
23498;SDS011;11926;48.120;11.562;2022-08-18T05:49:05;6.68;;;5.55;;
23498;SDS011;11926;48.120;11.562;2022-08-18T05:51:53;14.93;;;5.70;;
23498;SDS011;11926;48.120;11.562;2022-08-18T05:54:46;7.90;;;5.38;;
23498;SDS011;11926;48.120;11.562;2022-08-18T05:57:51;7.65;;;5.70;;
23498;SDS011;11926;48.120;11.562;2022-08-18T06:00:42;8.40;;;6.00;;
23498;SDS011;11926;48.120;11.562;2022-08-18T06:03:34;7.63;;;5.15;;
23498;SDS011;11926;48.120;11.562;2022-08-18T06:06:31;7.13;;;5.63;;
23498;SDS011;11926;48.120;11.562;2022-08-18T06:09:20;6.85;;;5.13;;
23498;SDS011;11926;48.120;11.562;2022-08-18T06:12:16;7.15;;;5.53;;
23498;SDS011;11926;48.120;11.562;2022-08-18T06:15:11;6.05;;;5.07;;
23498;SDS011;11926;48.120;11.562;2022-08-18T06:18:06;9.15;;;5.45;;
23498;SDS011;11926;48.120;11.562;2022-08-18T06:21:08;7.38;;;5.55;;
23498;SDS011;11926;48.120;11.562;2022-08-18T06:24:05;8.15;;;5.63;;
23498;SDS011;11926;48.120;11.562;2022-08-18T06:27:07;9.63;;;5.68;;
23498;SDS011;11926;48.120;11.562;2022-08-18T06:30:04;12.68;;;6.70;;
23498;SDS011;11926;48.120;11.562;2022-08-18T06:33:04;7.82;;;5.50;;
23498;SDS011;11926;48.120;11.562;2022-08-18T06:35:58;13.73;;;6.82;;
23498;SDS011;11926;48.120;11.562;2022-08-18T06:38:59;9.90;;;5.57;;
23498;SDS011;11926;48.120;11.562;2022-08-18T06:41:51;7.18;;;4.97;;
23498;SDS011;11926;48.120;11.562;2022-08-18T06:44:42;6.88;;;5.40;;
23498;SDS011;11926;48.120;11.562;2022-08-18T06:47:36;7.65;;;5.30;;
23498;SDS011;11926;48.120;11.562;2022-08-18T06:50:29;8.00;;;5.82;;
23498;SDS011;11926;48.120;11.562;2022-08-18T06:53:19;6.65;;;5.95;;
23498;SDS011;11926;48.120;11.562;2022-08-18T06:56:19;8.85;;;5.18;;
23498;SDS011;11926;48.120;11.562;2022-08-18T06:59:16;8.05;;;5.80;;
23498;SDS011;11926;48.120;11.562;2022-08-18T07:02:13;8.38;;;5.82;;
23498;SDS011;11926;48.120;11.562;2022-08-18T07:05:14;7.35;;;5.45;;
23498;SDS011;11926;48.120;11.562;2022-08-18T07:08:09;7.43;;;5.43;;
23498;SDS011;11926;48.120;11.562;2022-08-18T07:11:10;6.40;;;5.13;;
23498;SDS011;11926;48.120;11.562;2022-08-18T07:14:12;8.98;;;5.38;;
23498;SDS011;11926;48.120;11.562;2022-08-18T07:17:07;6.72;;;5.35;;
23498;SDS011;11926;48.120;11.562;2022-08-18T07:19:58;8.32;;;6.47;;
23498;SDS011;11926;48.120;11.562;2022-08-18T07:22:53;8.55;;;5.68;;
23498;SDS011;11926;48.120;11.562;2022-08-18T07:25:45;8.27;;;5.65;;
23498;SDS011;11926;48.120;11.562;2022-08-18T07:28:36;8.88;;;5.68;;
23498;SDS011;11926;48.120;11.562;2022-08-18T07:31:31;8.55;;;6.22;;
23498;SDS011;11926;48.120;11.562;2022-08-18T07:34:25;7.60;;;5.90;;
23498;SDS011;11926;48.120;11.562;2022-08-18T07:37:22;9.48;;;6.32;;
23498;SDS011;11926;48.120;11.562;2022-08-18T07:40:18;8.10;;;6.03;;
23498;SDS011;11926;48.120;11.562;2022-08-18T07:43:10;9.60;;;6.68;;
23498;SDS011;11926;48.120;11.562;2022-08-18T07:46:04;10.63;;;6.07;;
23498;SDS011;11926;48.120;11.562;2022-08-18T07:48:57;8.20;;;6.07;;
23498;SDS011;11926;48.120;11.562;2022-08-18T07:51:51;8.05;;;6.18;;
23498;SDS011;11926;48.120;11.562;2022-08-18T07:54:45;8.57;;;6.20;;
23498;SDS011;11926;48.120;11.562;2022-08-18T07:57:43;11.25;;;6.78;;
23498;SDS011;11926;48.120;11.562;2022-08-18T08:00:36;9.80;;;7.18;;
23498;SDS011;11926;48.120;11.562;2022-08-18T08:03:48;12.35;;;6.30;;
23498;SDS011;11926;48.120;11.562;2022-08-18T08:06:40;9.93;;;6.00;;
23498;SDS011;11926;48.120;11.562;2022-08-18T08:09:52;7.75;;;5.78;;
23498;SDS011;11926;48.120;11.562;2022-08-18T08:12:57;11.05;;;6.00;;
23498;SDS011;11926;48.120;11.562;2022-08-18T08:16:03;6.95;;;6.18;;
23498;SDS011;11926;48.120;11.562;2022-08-18T08:18:57;7.55;;;5.40;;
23498;SDS011;11926;48.120;11.562;2022-08-18T08:21:59;8.73;;;6.55;;
23498;SDS011;11926;48.120;11.562;2022-08-18T08:24:53;8.98;;;6.25;;
23498;SDS011;11926;48.120;11.562;2022-08-18T08:27:49;9.38;;;5.68;;
23498;SDS011;11926;48.120;11.562;2022-08-18T08:30:54;8.50;;;5.78;;
23498;SDS011;11926;48.120;11.562;2022-08-18T08:34:15;6.28;;;5.18;;
23498;SDS011;11926;48.120;11.562;2022-08-18T08:37:08;9.65;;;7.15;;
23498;SDS011;11926;48.120;11.562;2022-08-18T08:40:01;7.80;;;6.65;;
23498;SDS011;11926;48.120;11.562;2022-08-18T08:42:53;7.50;;;6.32;;
23498;SDS011;11926;48.120;11.562;2022-08-18T08:45:59;9.00;;;6.65;;
23498;SDS011;11926;48.120;11.562;2022-08-18T08:48:53;8.10;;;7.10;;
23498;SDS011;11926;48.120;11.562;2022-08-18T08:51:53;9.35;;;6.38;;
23498;SDS011;11926;48.120;11.562;2022-08-18T08:54:45;8.45;;;6.18;;
23498;SDS011;11926;48.120;11.562;2022-08-18T08:57:42;7.38;;;5.72;;
23498;SDS011;11926;48.120;11.562;2022-08-18T09:00:37;7.72;;;5.80;;
23498;SDS011;11926;48.120;11.562;2022-08-18T09:03:30;10.82;;;6.00;;
23498;SDS011;11926;48.120;11.562;2022-08-18T09:06:30;9.43;;;5.80;;
23498;SDS011;11926;48.120;11.562;2022-08-18T09:09:41;6.82;;;5.68;;
23498;SDS011;11926;48.120;11.562;2022-08-18T09:12:43;7.00;;;5.43;;
23498;SDS011;11926;48.120;11.562;2022-08-18T09:15:48;7.25;;;5.10;;
23498;SDS011;11926;48.120;11.562;2022-08-18T09:19:04;8.00;;;5.40;;
23498;SDS011;11926;48.120;11.562;2022-08-18T09:22:04;6.03;;;5.07;;
23498;SDS011;11926;48.120;11.562;2022-08-18T09:24:58;8.45;;;5.50;;
23498;SDS011;11926;48.120;11.562;2022-08-18T09:27:45;7.57;;;5.95;;
23498;SDS011;11926;48.120;11.562;2022-08-18T09:34:11;8.32;;;6.22;;
23498;SDS011;11926;48.120;11.562;2022-08-18T09:37:17;8.10;;;5.60;;
23498;SDS011;11926;48.120;11.562;2022-08-18T09:40:10;8.57;;;5.65;;
23498;SDS011;11926;48.120;11.562;2022-08-18T09:43:35;10.20;;;5.60;;
23498;SDS011;11926;48.120;11.562;2022-08-18T09:49:43;8.60;;;5.55;;
23498;SDS011;11926;48.120;11.562;2022-08-18T09:52:46;8.13;;;5.78;;
23498;SDS011;11926;48.120;11.562;2022-08-18T09:55:36;7.57;;;5.72;;
23498;SDS011;11926;48.120;11.562;2022-08-18T09:58:47;8.73;;;5.82;;
23498;SDS011;11926;48.120;11.562;2022-08-18T10:01:38;7.97;;;6.28;;
23498;SDS011;11926;48.120;11.562;2022-08-18T10:04:36;9.07;;;5.82;;
23498;SDS011;11926;48.120;11.562;2022-08-18T10:07:35;8.30;;;5.65;;
23498;SDS011;11926;48.120;11.562;2022-08-18T10:10:29;9.15;;;5.53;;
23498;SDS011;11926;48.120;11.562;2022-08-18T10:13:44;7.85;;;5.47;;
23498;SDS011;11926;48.120;11.562;2022-08-18T10:16:47;7.97;;;5.40;;
23498;SDS011;11926;48.120;11.562;2022-08-18T10:20:04;8.02;;;6.40;;
23498;SDS011;11926;48.120;11.562;2022-08-18T10:23:11;7.65;;;6.65;;
23498;SDS011;11926;48.120;11.562;2022-08-18T10:29:52;7.45;;;5.95;;
23498;SDS011;11926;48.120;11.562;2022-08-18T10:32:42;8.82;;;6.22;;
23498;SDS011;11926;48.120;11.562;2022-08-18T10:38:44;7.70;;;5.38;;
23498;SDS011;11926;48.120;11.562;2022-08-18T10:41:44;7.32;;;5.38;;
23498;SDS011;11926;48.120;11.562;2022-08-18T10:44:42;6.78;;;5.90;;
23498;SDS011;11926;48.120;11.562;2022-08-18T10:47:32;8.40;;;5.57;;
23498;SDS011;11926;48.120;11.562;2022-08-18T10:50:23;7.25;;;5.72;;
23498;SDS011;11926;48.120;11.562;2022-08-18T10:53:15;6.70;;;5.78;;
23498;SDS011;11926;48.120;11.562;2022-08-18T10:56:30;7.13;;;5.47;;
23498;SDS011;11926;48.120;11.562;2022-08-18T10:59:30;10.43;;;5.30;;
23498;SDS011;11926;48.120;11.562;2022-08-18T11:02:41;7.93;;;5.28;;
23498;SDS011;11926;48.120;11.562;2022-08-18T11:06:02;8.07;;;5.38;;
23498;SDS011;11926;48.120;11.562;2022-08-18T11:09:11;8.10;;;5.45;;
23498;SDS011;11926;48.120;11.562;2022-08-18T11:12:01;6.10;;;5.28;;
23498;SDS011;11926;48.120;11.562;2022-08-18T11:14:53;10.60;;;5.30;;
23498;SDS011;11926;48.120;11.562;2022-08-18T11:18:17;9.23;;;6.07;;
23498;SDS011;11926;48.120;11.562;2022-08-18T11:24:27;6.28;;;5.43;;
23498;SDS011;11926;48.120;11.562;2022-08-18T11:27:19;8.02;;;5.45;;
23498;SDS011;11926;48.120;11.562;2022-08-18T11:30:08;8.27;;;5.85;;
23498;SDS011;11926;48.120;11.562;2022-08-18T11:32:57;7.50;;;5.82;;
23498;SDS011;11926;48.120;11.562;2022-08-18T11:35:48;8.30;;;5.75;;
23498;SDS011;11926;48.120;11.562;2022-08-18T11:38:37;8.88;;;5.82;;
23498;SDS011;11926;48.120;11.562;2022-08-18T11:41:26;7.70;;;5.63;;
23498;SDS011;11926;48.120;11.562;2022-08-18T11:44:34;8.15;;;6.28;;
23498;SDS011;11926;48.120;11.562;2022-08-18T11:47:24;8.32;;;6.80;;
23498;SDS011;11926;48.120;11.562;2022-08-18T11:50:14;7.45;;;5.53;;
23498;SDS011;11926;48.120;11.562;2022-08-18T11:53:15;8.90;;;5.82;;
23498;SDS011;11926;48.120;11.562;2022-08-18T11:56:14;6.50;;;5.20;;
23498;SDS011;11926;48.120;11.562;2022-08-18T12:02:39;7.32;;;5.80;;
23498;SDS011;11926;48.120;11.562;2022-08-18T12:05:27;11.13;;;6.07;;
23498;SDS011;11926;48.120;11.562;2022-08-18T12:08:33;7.25;;;5.40;;
23498;SDS011;11926;48.120;11.562;2022-08-18T12:11:48;11.27;;;5.97;;
23498;SDS011;11926;48.120;11.562;2022-08-18T12:14:50;10.63;;;5.88;;
23498;SDS011;11926;48.120;11.562;2022-08-18T12:17:57;9.73;;;5.25;;
23498;SDS011;11926;48.120;11.562;2022-08-18T12:20:45;8.25;;;6.10;;
23498;SDS011;11926;48.120;11.562;2022-08-18T12:23:37;7.25;;;5.90;;
23498;SDS011;11926;48.120;11.562;2022-08-18T12:26:36;8.25;;;5.80;;
23498;SDS011;11926;48.120;11.562;2022-08-18T12:29:32;8.63;;;5.95;;
23498;SDS011;11926;48.120;11.562;2022-08-18T12:32:28;6.43;;;5.82;;
23498;SDS011;11926;48.120;11.562;2022-08-18T12:35:39;7.53;;;5.68;;
23498;SDS011;11926;48.120;11.562;2022-08-18T12:38:30;7.72;;;5.97;;
23498;SDS011;11926;48.120;11.562;2022-08-18T12:41:20;9.30;;;5.97;;
23498;SDS011;11926;48.120;11.562;2022-08-18T12:44:08;9.73;;;6.63;;
23498;SDS011;11926;48.120;11.562;2022-08-18T12:46:58;8.65;;;6.63;;
23498;SDS011;11926;48.120;11.562;2022-08-18T12:49:48;13.82;;;5.63;;
23498;SDS011;11926;48.120;11.562;2022-08-18T12:52:37;8.73;;;6.60;;
23498;SDS011;11926;48.120;11.562;2022-08-18T12:55:36;8.83;;;6.07;;
23498;SDS011;11926;48.120;11.562;2022-08-18T12:58:29;10.00;;;6.40;;
23498;SDS011;11926;48.120;11.562;2022-08-18T13:01:21;10.95;;;6.88;;
23498;SDS011;11926;48.120;11.562;2022-08-18T13:04:10;8.80;;;6.40;;
23498;SDS011;11926;48.120;11.562;2022-08-18T13:07:03;8.05;;;6.35;;
23498;SDS011;11926;48.120;11.562;2022-08-18T13:09:53;7.53;;;6.35;;
23498;SDS011;11926;48.120;11.562;2022-08-18T13:12:42;9.25;;;5.90;;
23498;SDS011;11926;48.120;11.562;2022-08-18T13:15:29;8.73;;;6.20;;
23498;SDS011;11926;48.120;11.562;2022-08-18T13:18:17;7.03;;;5.40;;
23498;SDS011;11926;48.120;11.562;2022-08-18T13:21:13;8.88;;;5.75;;
23498;SDS011;11926;48.120;11.562;2022-08-18T13:24:02;9.10;;;5.45;;
23498;SDS011;11926;48.120;11.562;2022-08-18T13:26:54;7.05;;;5.00;;
23498;SDS011;11926;48.120;11.562;2022-08-18T13:29:42;6.53;;;5.35;;
23498;SDS011;11926;48.120;11.562;2022-08-18T13:32:29;10.18;;;5.55;;
23498;SDS011;11926;48.120;11.562;2022-08-18T13:35:37;7.88;;;4.85;;
23498;SDS011;11926;48.120;11.562;2022-08-18T13:38:28;8.18;;;4.95;;
23498;SDS011;11926;48.120;11.562;2022-08-18T13:41:15;6.63;;;5.13;;
23498;SDS011;11926;48.120;11.562;2022-08-18T13:44:09;6.85;;;5.00;;
23498;SDS011;11926;48.120;11.562;2022-08-18T13:47:02;5.78;;;5.13;;
23498;SDS011;11926;48.120;11.562;2022-08-18T13:49:52;12.25;;;5.35;;
23498;SDS011;11926;48.120;11.562;2022-08-18T13:52:43;12.07;;;6.13;;
23498;SDS011;11926;48.120;11.562;2022-08-18T13:55:31;12.00;;;6.22;;
23498;SDS011;11926;48.120;11.562;2022-08-18T13:58:19;12.27;;;6.05;;
23498;SDS011;11926;48.120;11.562;2022-08-18T14:01:10;7.75;;;5.57;;
23498;SDS011;11926;48.120;11.562;2022-08-18T14:04:18;7.75;;;6.15;;
23498;SDS011;11926;48.120;11.562;2022-08-18T14:07:14;9.98;;;6.57;;
23498;SDS011;11926;48.120;11.562;2022-08-18T14:10:12;11.32;;;6.43;;
23498;SDS011;11926;48.120;11.562;2022-08-18T14:13:01;9.77;;;6.85;;
23498;SDS011;11926;48.120;11.562;2022-08-18T14:16:05;11.70;;;7.47;;
23498;SDS011;11926;48.120;11.562;2022-08-18T14:18:56;10.15;;;6.47;;
23498;SDS011;11926;48.120;11.562;2022-08-18T14:21:58;8.40;;;6.78;;
23498;SDS011;11926;48.120;11.562;2022-08-18T14:25:09;10.23;;;6.35;;
23498;SDS011;11926;48.120;11.562;2022-08-18T14:28:14;7.95;;;6.90;;
23498;SDS011;11926;48.120;11.562;2022-08-18T14:31:09;9.48;;;7.22;;
23498;SDS011;11926;48.120;11.562;2022-08-18T14:33:57;9.40;;;6.68;;
23498;SDS011;11926;48.120;11.562;2022-08-18T14:36:48;8.32;;;6.10;;
23498;SDS011;11926;48.120;11.562;2022-08-18T14:39:37;11.82;;;7.38;;
23498;SDS011;11926;48.120;11.562;2022-08-18T14:42:32;12.38;;;7.68;;
23498;SDS011;11926;48.120;11.562;2022-08-18T14:45:38;8.43;;;6.57;;
23498;SDS011;11926;48.120;11.562;2022-08-18T14:48:36;9.35;;;6.50;;
23498;SDS011;11926;48.120;11.562;2022-08-18T14:51:28;11.18;;;6.65;;
23498;SDS011;11926;48.120;11.562;2022-08-18T14:54:17;10.68;;;6.10;;
23498;SDS011;11926;48.120;11.562;2022-08-18T14:57:04;9.57;;;6.43;;
23498;SDS011;11926;48.120;11.562;2022-08-18T14:59:59;9.55;;;5.68;;
23498;SDS011;11926;48.120;11.562;2022-08-18T15:02:50;9.65;;;6.30;;
23498;SDS011;11926;48.120;11.562;2022-08-18T15:05:37;8.90;;;6.28;;
23498;SDS011;11926;48.120;11.562;2022-08-18T15:08:28;11.48;;;6.35;;
23498;SDS011;11926;48.120;11.562;2022-08-18T15:11:17;8.02;;;5.97;;
23498;SDS011;11926;48.120;11.562;2022-08-18T15:14:08;8.68;;;6.18;;
23498;SDS011;11926;48.120;11.562;2022-08-18T15:17:00;10.43;;;6.10;;
23498;SDS011;11926;48.120;11.562;2022-08-18T15:19:59;9.07;;;5.82;;
23498;SDS011;11926;48.120;11.562;2022-08-18T15:22:46;8.00;;;5.72;;
23498;SDS011;11926;48.120;11.562;2022-08-18T15:28:37;9.23;;;6.47;;
23498;SDS011;11926;48.120;11.562;2022-08-18T15:31:29;8.95;;;6.00;;
23498;SDS011;11926;48.120;11.562;2022-08-18T15:34:35;9.73;;;5.88;;
23498;SDS011;11926;48.120;11.562;2022-08-18T15:37:38;8.65;;;6.10;;
23498;SDS011;11926;48.120;11.562;2022-08-18T15:40:29;10.32;;;6.45;;
23498;SDS011;11926;48.120;11.562;2022-08-18T15:43:30;9.73;;;6.75;;
23498;SDS011;11926;48.120;11.562;2022-08-18T15:46:19;9.63;;;6.85;;
23498;SDS011;11926;48.120;11.562;2022-08-18T15:49:08;8.57;;;6.47;;
23498;SDS011;11926;48.120;11.562;2022-08-18T15:51:59;9.35;;;7.60;;
23498;SDS011;11926;48.120;11.562;2022-08-18T15:54:46;9.55;;;6.78;;
23498;SDS011;11926;48.120;11.562;2022-08-18T15:57:35;9.43;;;7.15;;
23498;SDS011;11926;48.120;11.562;2022-08-18T16:00:26;8.73;;;6.88;;
23498;SDS011;11926;48.120;11.562;2022-08-18T16:03:16;9.53;;;7.20;;
23498;SDS011;11926;48.120;11.562;2022-08-18T16:06:11;7.60;;;6.80;;
23498;SDS011;11926;48.120;11.562;2022-08-18T16:09:04;8.60;;;6.95;;
23498;SDS011;11926;48.120;11.562;2022-08-18T16:11:52;9.18;;;6.57;;
23498;SDS011;11926;48.120;11.562;2022-08-18T16:14:44;8.07;;;6.43;;
23498;SDS011;11926;48.120;11.562;2022-08-18T16:17:33;12.07;;;6.85;;
23498;SDS011;11926;48.120;11.562;2022-08-18T16:20:23;10.55;;;7.32;;
23498;SDS011;11926;48.120;11.562;2022-08-18T16:23:11;10.23;;;6.70;;
23498;SDS011;11926;48.120;11.562;2022-08-18T16:26:00;11.52;;;6.75;;
23498;SDS011;11926;48.120;11.562;2022-08-18T16:28:49;7.65;;;6.80;;
23498;SDS011;11926;48.120;11.562;2022-08-18T16:31:37;10.88;;;6.90;;
23498;SDS011;11926;48.120;11.562;2022-08-18T16:34:26;10.55;;;7.00;;
23498;SDS011;11926;48.120;11.562;2022-08-18T16:37:14;10.95;;;7.43;;
23498;SDS011;11926;48.120;11.562;2022-08-18T16:40:02;10.35;;;7.22;;
23498;SDS011;11926;48.120;11.562;2022-08-18T16:42:52;10.25;;;6.82;;
23498;SDS011;11926;48.120;11.562;2022-08-18T16:45:40;7.63;;;6.85;;
23498;SDS011;11926;48.120;11.562;2022-08-18T16:48:28;13.30;;;7.20;;
23498;SDS011;11926;48.120;11.562;2022-08-18T16:51:28;10.02;;;7.60;;
23498;SDS011;11926;48.120;11.562;2022-08-18T16:54:15;10.85;;;7.22;;
23498;SDS011;11926;48.120;11.562;2022-08-18T16:57:02;11.07;;;7.85;;
23498;SDS011;11926;48.120;11.562;2022-08-18T16:59:50;10.48;;;7.40;;
23498;SDS011;11926;48.120;11.562;2022-08-18T17:02:50;9.43;;;7.75;;
23498;SDS011;11926;48.120;11.562;2022-08-18T17:05:59;13.63;;;7.47;;
23498;SDS011;11926;48.120;11.562;2022-08-18T17:08:47;13.07;;;7.82;;
23498;SDS011;11926;48.120;11.562;2022-08-18T17:11:33;10.23;;;7.30;;
23498;SDS011;11926;48.120;11.562;2022-08-18T17:14:36;12.80;;;7.63;;
23498;SDS011;11926;48.120;11.562;2022-08-18T17:17:24;11.02;;;7.13;;
23498;SDS011;11926;48.120;11.562;2022-08-18T17:20:14;13.57;;;7.65;;
23498;SDS011;11926;48.120;11.562;2022-08-18T17:23:03;10.13;;;7.60;;
23498;SDS011;11926;48.120;11.562;2022-08-18T17:25:51;10.52;;;5.20;;
23498;SDS011;11926;48.120;11.562;2022-08-18T17:28:41;14.73;;;5.97;;
23498;SDS011;11926;48.120;11.562;2022-08-18T17:31:37;8.30;;;4.18;;
23498;SDS011;11926;48.120;11.562;2022-08-18T17:34:35;6.53;;;4.15;;